sensor_id;sensor_type;location;lat;lon;timestamp;pressure;altitude;pressure_sealevel;temperature;humidity
31082;BME280;17737;52.586;13.284;2022-12-18T00:01:28;102787.69;;;-5.10;86.49
31082;BME280;17737;52.586;13.284;2022-12-18T00:03:58;102784.31;;;-5.18;87.36
31082;BME280;17737;52.586;13.284;2022-12-18T00:06:27;102793.88;;;-5.15;87.12
31082;BME280;17737;52.586;13.284;2022-12-18T00:08:57;102799.19;;;-5.18;86.98
31082;BME280;17737;52.586;13.284;2022-12-18T00:11:27;102797.47;;;-5.22;87.00
31082;BME280;17737;52.586;13.284;2022-12-18T00:13:57;102791.34;;;-5.20;86.84
31082;BME280;17737;52.586;13.284;2022-12-18T00:16:27;102800.09;;;-5.21;86.58
31082;BME280;17737;52.586;13.284;2022-12-18T00:18:56;102795.66;;;-5.17;87.02
31082;BME280;17737;52.586;13.284;2022-12-18T00:21:24;102801.94;;;-5.29;87.16
31082;BME280;17737;52.586;13.284;2022-12-18T00:23:52;102787.16;;;-5.37;87.67
31082;BME280;17737;52.586;13.284;2022-12-18T00:26:23;102793.34;;;-5.40;87.03
31082;BME280;17737;52.586;13.284;2022-12-18T00:28:52;102794.13;;;-5.36;87.16
31082;BME280;17737;52.586;13.284;2022-12-18T00:31:21;102800.28;;;-5.36;86.44
31082;BME280;17737;52.586;13.284;2022-12-18T00:33:50;102799.41;;;-5.36;86.79
31082;BME280;17737;52.586;13.284;2022-12-18T00:36:22;102796.75;;;-5.32;86.09
31082;BME280;17737;52.586;13.284;2022-12-18T00:38:51;102790.66;;;-5.35;85.87
31082;BME280;17737;52.586;13.284;2022-12-18T00:41:19;102788.09;;;-5.40;85.92
31082;BME280;17737;52.586;13.284;2022-12-18T00:44:02;102792.50;;;-5.43;86.71
31082;BME280;17737;52.586;13.284;2022-12-18T00:46:31;102796.81;;;-5.39;86.23
31082;BME280;17737;52.586;13.284;2022-12-18T00:48:59;102793.22;;;-5.32;85.91
31082;BME280;17737;52.586;13.284;2022-12-18T00:51:27;102795.78;;;-5.26;85.77
31082;BME280;17737;52.586;13.284;2022-12-18T00:53:55;102781.72;;;-5.22;86.01
31082;BME280;17737;52.586;13.284;2022-12-18T00:56:22;102781.75;;;-5.25;86.95
31082;BME280;17737;52.586;13.284;2022-12-18T00:58:50;102782.53;;;-5.19;86.67
31082;BME280;17737;52.586;13.284;2022-12-18T01:01:20;102784.31;;;-5.21;85.76
31082;BME280;17737;52.586;13.284;2022-12-18T01:03:47;102792.19;;;-5.19;85.70
31082;BME280;17737;52.586;13.284;2022-12-18T01:06:16;102796.56;;;-5.18;86.11
31082;BME280;17737;52.586;13.284;2022-12-18T01:08:44;102794.00;;;-5.24;86.05
31082;BME280;17737;52.586;13.284;2022-12-18T01:11:14;102801.06;;;-5.26;85.29
31082;BME280;17737;52.586;13.284;2022-12-18T01:13:43;102808.06;;;-5.28;85.97
31082;BME280;17737;52.586;13.284;2022-12-18T01:16:12;102800.38;;;-5.43;86.00
31082;BME280;17737;52.586;13.284;2022-12-18T01:18:41;102806.31;;;-5.26;86.21
31082;BME280;17737;52.586;13.284;2022-12-18T01:21:10;102816.00;;;-5.33;85.94
31082;BME280;17737;52.586;13.284;2022-12-18T01:23:39;102809.75;;;-5.24;85.86
31082;BME280;17737;52.586;13.284;2022-12-18T01:26:08;102823.84;;;-5.28;86.21
31082;BME280;17737;52.586;13.284;2022-12-18T01:28:37;102818.50;;;-5.22;85.69
31082;BME280;17737;52.586;13.284;2022-12-18T01:31:15;102821.94;;;-5.17;85.27
31082;BME280;17737;52.586;13.284;2022-12-18T01:33:45;102822.88;;;-5.21;85.64
31082;BME280;17737;52.586;13.284;2022-12-18T01:36:18;102817.53;;;-5.15;85.56
31082;BME280;17737;52.586;13.284;2022-12-18T01:38:47;102822.88;;;-5.20;85.41
31082;BME280;17737;52.586;13.284;2022-12-18T01:41:18;102821.13;;;-5.22;85.94
31082;BME280;17737;52.586;13.284;2022-12-18T01:43:49;102825.59;;;-5.30;85.80
31082;BME280;17737;52.586;13.284;2022-12-18T01:46:19;102823.75;;;-5.22;84.94
31082;BME280;17737;52.586;13.284;2022-12-18T01:48:52;102826.31;;;-5.16;85.05
31082;BME280;17737;52.586;13.284;2022-12-18T01:51:21;102824.72;;;-5.31;85.26
31082;BME280;17737;52.586;13.284;2022-12-18T01:53:49;102836.16;;;-5.33;85.36
31082;BME280;17737;52.586;13.284;2022-12-18T01:56:19;102837.09;;;-5.39;85.69
31082;BME280;17737;52.586;13.284;2022-12-18T01:58:53;102840.50;;;-5.32;85.02
31082;BME280;17737;52.586;13.284;2022-12-18T02:01:23;102843.97;;;-5.29;85.43
31082;BME280;17737;52.586;13.284;2022-12-18T02:03:52;102843.16;;;-5.34;85.41
31082;BME280;17737;52.586;13.284;2022-12-18T02:06:23;102838.78;;;-5.33;85.70
31082;BME280;17737;52.586;13.284;2022-12-18T02:09:02;102845.00;;;-5.40;85.31
31082;BME280;17737;52.586;13.284;2022-12-18T02:11:39;102839.91;;;-5.55;85.43
31082;BME280;17737;52.586;13.284;2022-12-18T02:14:18;102830.34;;;-5.61;85.37
31082;BME280;17737;52.586;13.284;2022-12-18T02:16:54;102841.78;;;-5.69;85.66
31082;BME280;17737;52.586;13.284;2022-12-18T02:19:44;102838.34;;;-5.73;86.12
31082;BME280;17737;52.586;13.284;2022-12-18T02:22:25;102839.19;;;-5.71;85.99
31082;BME280;17737;52.586;13.284;2022-12-18T02:25:03;102835.69;;;-5.73;86.46
31082;BME280;17737;52.586;13.284;2022-12-18T02:27:37;102840.94;;;-5.73;86.56
31082;BME280;17737;52.586;13.284;2022-12-18T02:30:06;102845.25;;;-5.64;86.06
31082;BME280;17737;52.586;13.284;2022-12-18T02:32:37;102843.44;;;-5.59;85.32
31082;BME280;17737;52.586;13.284;2022-12-18T02:35:11;102848.69;;;-5.59;85.22
31082;BME280;17737;52.586;13.284;2022-12-18T02:37:42;102847.81;;;-5.57;86.06
31082;BME280;17737;52.586;13.284;2022-12-18T02:40:12;102852.97;;;-5.49;85.80
31082;BME280;17737;52.586;13.284;2022-12-18T02:42:43;102856.53;;;-5.53;85.99
31082;BME280;17737;52.586;13.284;2022-12-18T02:45:10;102853.84;;;-5.50;86.14
31082;BME280;17737;52.586;13.284;2022-12-18T02:47:40;102859.97;;;-5.51;84.79
31082;BME280;17737;52.586;13.284;2022-12-18T02:50:15;102853.19;;;-5.69;85.74
31082;BME280;17737;52.586;13.284;2022-12-18T02:52:51;102855.75;;;-5.64;86.02
31082;BME280;17737;52.586;13.284;2022-12-18T02:55:28;102858.34;;;-5.63;85.93
31082;BME280;17737;52.586;13.284;2022-12-18T02:58:05;102850.56;;;-5.70;85.81
31082;BME280;17737;52.586;13.284;2022-12-18T03:00:39;102850.53;;;-5.67;86.22
31082;BME280;17737;52.586;13.284;2022-12-18T03:03:11;102853.13;;;-5.66;86.17
31082;BME280;17737;52.586;13.284;2022-12-18T03:05:45;102859.22;;;-5.62;86.11
31082;BME280;17737;52.586;13.284;2022-12-18T03:08:18;102852.31;;;-5.69;85.88
31082;BME280;17737;52.586;13.284;2022-12-18T03:10:49;102859.22;;;-5.62;85.88
31082;BME280;17737;52.586;13.284;2022-12-18T03:13:24;102856.56;;;-5.58;85.28
31082;BME280;17737;52.586;13.284;2022-12-18T03:15:55;102853.16;;;-5.67;86.04
31082;BME280;17737;52.586;13.284;2022-12-18T03:18:27;102861.88;;;-5.67;85.62
31082;BME280;17737;52.586;13.284;2022-12-18T03:21:00;102849.59;;;-5.62;85.56
31082;BME280;17737;52.586;13.284;2022-12-18T03:23:35;102847.88;;;-5.64;85.46
31082;BME280;17737;52.586;13.284;2022-12-18T03:26:07;102853.97;;;-5.62;85.77
31082;BME280;17737;52.586;13.284;2022-12-18T03:28:40;102858.44;;;-5.70;85.84
31082;BME280;17737;52.586;13.284;2022-12-18T03:31:11;102861.97;;;-5.74;86.13
31082;BME280;17737;52.586;13.284;2022-12-18T03:33:45;102854.88;;;-5.66;86.11
31082;BME280;17737;52.586;13.284;2022-12-18T03:36:14;102845.22;;;-5.63;85.50
31082;BME280;17737;52.586;13.284;2022-12-18T03:38:42;102851.59;;;-5.85;85.60
31082;BME280;17737;52.586;13.284;2022-12-18T03:41:16;102859.56;;;-5.92;86.29
31082;BME280;17737;52.586;13.284;2022-12-18T03:43:51;102856.91;;;-5.91;86.50
31082;BME280;17737;52.586;13.284;2022-12-18T03:46:26;102859.38;;;-5.80;86.60
31082;BME280;17737;52.586;13.284;2022-12-18T03:49:00;102860.28;;;-5.80;86.21
31082;BME280;17737;52.586;13.284;2022-12-18T03:51:39;102859.34;;;-5.74;86.26
31082;BME280;17737;52.586;13.284;2022-12-18T03:54:10;102862.00;;;-5.76;86.65
31082;BME280;17737;52.586;13.284;2022-12-18T03:56:42;102866.28;;;-5.67;86.65
31082;BME280;17737;52.586;13.284;2022-12-18T03:59:15;102854.78;;;-5.56;85.64
31082;BME280;17737;52.586;13.284;2022-12-18T04:01:46;102867.00;;;-5.50;85.74
31082;BME280;17737;52.586;13.284;2022-12-18T04:04:16;102860.88;;;-5.52;85.32
31082;BME280;17737;52.586;13.284;2022-12-18T04:06:47;102862.66;;;-5.54;85.18
31082;BME280;17737;52.586;13.284;2022-12-18T04:09:15;102865.34;;;-5.63;85.50
31082;BME280;17737;52.586;13.284;2022-12-18T04:11:43;102871.66;;;-5.79;85.58
31082;BME280;17737;52.586;13.284;2022-12-18T04:14:12;102875.13;;;-5.80;85.92
31082;BME280;17737;52.586;13.284;2022-12-18T04:16:44;102878.59;;;-5.74;85.53
31082;BME280;17737;52.586;13.284;2022-12-18T04:19:12;102881.28;;;-5.80;86.16
31082;BME280;17737;52.586;13.284;2022-12-18T04:21:40;102876.03;;;-5.81;85.86
31082;BME280;17737;52.586;13.284;2022-12-18T04:24:08;102869.84;;;-5.74;85.36
31082;BME280;17737;52.586;13.284;2022-12-18T04:26:36;102873.50;;;-5.90;85.96
31082;BME280;17737;52.586;13.284;2022-12-18T04:29:04;102879.59;;;-5.87;85.33
31082;BME280;17737;52.586;13.284;2022-12-18T04:31:33;102880.56;;;-5.92;85.97
31082;BME280;17737;52.586;13.284;2022-12-18T04:34:01;102883.25;;;-6.06;86.24
31082;BME280;17737;52.586;13.284;2022-12-18T04:36:29;102892.78;;;-5.91;86.00
31082;BME280;17737;52.586;13.284;2022-12-18T04:38:57;102885.88;;;-6.06;85.87
31082;BME280;17737;52.586;13.284;2022-12-18T04:41:25;102884.94;;;-5.94;86.17
31082;BME280;17737;52.586;13.284;2022-12-18T04:43:52;102877.84;;;-5.83;86.04
31082;BME280;17737;52.586;13.284;2022-12-18T04:46:20;102881.34;;;-5.84;85.61
31082;BME280;17737;52.586;13.284;2022-12-18T04:48:49;102883.13;;;-5.86;85.67
31082;BME280;17737;52.586;13.284;2022-12-18T04:51:17;102879.56;;;-5.84;85.78
31082;BME280;17737;52.586;13.284;2022-12-18T04:53:52;102876.22;;;-5.96;85.58
31082;BME280;17737;52.586;13.284;2022-12-18T04:56:20;102886.72;;;-5.98;86.35
31082;BME280;17737;52.586;13.284;2022-12-18T04:58:48;102894.59;;;-5.99;86.04
31082;BME280;17737;52.586;13.284;2022-12-18T05:01:17;102908.59;;;-6.00;85.97
31082;BME280;17737;52.586;13.284;2022-12-18T05:03:45;102919.06;;;-5.99;85.76
31082;BME280;17737;52.586;13.284;2022-12-18T05:06:15;102909.41;;;-5.94;86.02
31082;BME280;17737;52.586;13.284;2022-12-18T05:08:42;102905.09;;;-5.99;86.08
31082;BME280;17737;52.586;13.284;2022-12-18T05:11:13;102902.44;;;-5.95;85.56
31082;BME280;17737;52.586;13.284;2022-12-18T05:13:42;102908.50;;;-5.88;85.31
31082;BME280;17737;52.586;13.284;2022-12-18T05:16:10;102908.47;;;-5.87;85.17
31082;BME280;17737;52.586;13.284;2022-12-18T05:18:38;102912.00;;;-5.89;85.19
31082;BME280;17737;52.586;13.284;2022-12-18T05:21:06;102910.28;;;-5.93;85.71
31082;BME280;17737;52.586;13.284;2022-12-18T05:23:36;102915.50;;;-5.87;85.50
31082;BME280;17737;52.586;13.284;2022-12-18T05:26:06;102921.66;;;-5.93;85.27
31082;BME280;17737;52.586;13.284;2022-12-18T05:28:35;102933.03;;;-5.92;85.12
31082;BME280;17737;52.586;13.284;2022-12-18T05:31:04;102940.88;;;-5.88;85.58
31082;BME280;17737;52.586;13.284;2022-12-18T05:33:34;102942.53;;;-5.81;85.01
31082;BME280;17737;52.586;13.284;2022-12-18T05:36:04;102940.91;;;-5.95;85.58
31082;BME280;17737;52.586;13.284;2022-12-18T05:38:34;102941.75;;;-5.87;85.31
31082;BME280;17737;52.586;13.284;2022-12-18T05:41:03;102923.34;;;-5.84;85.09
31082;BME280;17737;52.586;13.284;2022-12-18T05:43:33;102931.16;;;-5.81;85.46
31082;BME280;17737;52.586;13.284;2022-12-18T05:46:03;102922.41;;;-5.82;84.61
31082;BME280;17737;52.586;13.284;2022-12-18T05:48:32;102942.66;;;-5.93;84.89
31082;BME280;17737;52.586;13.284;2022-12-18T05:51:04;102942.69;;;-5.94;85.72
31082;BME280;17737;52.586;13.284;2022-12-18T05:53:33;102940.78;;;-5.82;85.10
31082;BME280;17737;52.586;13.284;2022-12-18T05:56:04;102939.13;;;-5.86;85.22
31082;BME280;17737;52.586;13.284;2022-12-18T05:58:33;102948.78;;;-5.95;85.14
31082;BME280;17737;52.586;13.284;2022-12-18T06:01:08;102947.00;;;-5.92;85.72
31082;BME280;17737;52.586;13.284;2022-12-18T06:03:36;102947.94;;;-5.96;85.37
31082;BME280;17737;52.586;13.284;2022-12-18T06:06:13;102955.78;;;-5.97;85.74
31082;BME280;17737;52.586;13.284;2022-12-18T06:08:41;102949.63;;;-5.87;85.48
31082;BME280;17737;52.586;13.284;2022-12-18T06:11:16;102950.47;;;-5.87;84.87
31082;BME280;17737;52.586;13.284;2022-12-18T06:13:45;102947.84;;;-5.87;85.26
31082;BME280;17737;52.586;13.284;2022-12-18T06:16:14;102960.00;;;-5.77;84.73
31082;BME280;17737;52.586;13.284;2022-12-18T06:18:42;102961.91;;;-5.91;85.08
31082;BME280;17737;52.586;13.284;2022-12-18T06:21:10;102961.91;;;-5.95;85.25
31082;BME280;17737;52.586;13.284;2022-12-18T06:23:38;102959.25;;;-5.89;85.28
31082;BME280;17737;52.586;13.284;2022-12-18T06:26:06;102960.97;;;-5.85;84.99
31082;BME280;17737;52.586;13.284;2022-12-18T06:28:36;102964.53;;;-5.91;85.48
31082;BME280;17737;52.586;13.284;2022-12-18T06:31:05;102967.97;;;-5.89;85.21
31082;BME280;17737;52.586;13.284;2022-12-18T06:33:33;102971.53;;;-5.97;84.96
31082;BME280;17737;52.586;13.284;2022-12-18T06:36:03;102976.78;;;-5.97;85.61
31082;BME280;17737;52.586;13.284;2022-12-18T06:38:32;102988.97;;;-5.84;85.48
31082;BME280;17737;52.586;13.284;2022-12-18T06:41:00;102992.47;;;-5.88;84.97
31082;BME280;17737;52.586;13.284;2022-12-18T06:43:27;103001.22;;;-5.86;85.56
31082;BME280;17737;52.586;13.284;2022-12-18T06:46:00;102994.25;;;-5.87;85.15
31082;BME280;17737;52.586;13.284;2022-12-18T06:48:28;102996.84;;;-5.86;85.41
31082;BME280;17737;52.586;13.284;2022-12-18T06:50:56;103005.59;;;-5.85;85.14
31082;BME280;17737;52.586;13.284;2022-12-18T06:53:24;103007.41;;;-5.93;85.49
31082;BME280;17737;52.586;13.284;2022-12-18T06:55:52;103010.00;;;-5.90;85.31
31082;BME280;17737;52.586;13.284;2022-12-18T06:58:20;103014.34;;;-5.85;85.52
31082;BME280;17737;52.586;13.284;2022-12-18T07:00:48;103010.84;;;-5.82;85.28
31082;BME280;17737;52.586;13.284;2022-12-18T07:03:17;103000.34;;;-5.82;85.55
31082;BME280;17737;52.586;13.284;2022-12-18T07:05:45;102998.53;;;-5.82;84.92
31082;BME280;17737;52.586;13.284;2022-12-18T07:08:13;102995.09;;;-5.85;85.38
31082;BME280;17737;52.586;13.284;2022-12-18T07:10:41;102995.09;;;-5.88;85.28
31082;BME280;17737;52.586;13.284;2022-12-18T07:13:13;103002.00;;;-5.78;85.11
31082;BME280;17737;52.586;13.284;2022-12-18T07:15:41;103004.66;;;-5.81;85.25
31082;BME280;17737;52.586;13.284;2022-12-18T07:18:10;103003.81;;;-5.83;85.21
31082;BME280;17737;52.586;13.284;2022-12-18T07:20:40;103008.22;;;-5.82;85.12
31082;BME280;17737;52.586;13.284;2022-12-18T07:23:08;103015.16;;;-5.81;84.60
31082;BME280;17737;52.586;13.284;2022-12-18T07:25:36;103019.56;;;-5.83;84.71
31082;BME280;17737;52.586;13.284;2022-12-18T07:28:04;103009.97;;;-5.84;85.13
31082;BME280;17737;52.586;13.284;2022-12-18T07:30:32;103006.38;;;-5.80;84.68
31082;BME280;17737;52.586;13.284;2022-12-18T07:33:00;103017.84;;;-5.83;84.61
31082;BME280;17737;52.586;13.284;2022-12-18T07:35:28;103005.50;;;-5.76;85.10
31082;BME280;17737;52.586;13.284;2022-12-18T07:37:57;103002.09;;;-5.86;84.99
31082;BME280;17737;52.586;13.284;2022-12-18T07:40:24;103002.09;;;-5.86;85.05
31082;BME280;17737;52.586;13.284;2022-12-18T07:42:52;103002.91;;;-5.79;85.22
31082;BME280;17737;52.586;13.284;2022-12-18T07:45:20;103009.88;;;-5.74;85.02
31082;BME280;17737;52.586;13.284;2022-12-18T07:47:48;103009.00;;;-5.76;84.50
31082;BME280;17737;52.586;13.284;2022-12-18T07:50:16;103006.31;;;-5.68;84.91
31082;BME280;17737;52.586;13.284;2022-12-18T07:52:43;103009.84;;;-5.75;84.02
31082;BME280;17737;52.586;13.284;2022-12-18T07:55:13;103007.25;;;-5.74;84.76
31082;BME280;17737;52.586;13.284;2022-12-18T07:57:40;103009.84;;;-5.75;84.31
31082;BME280;17737;52.586;13.284;2022-12-18T08:00:20;103016.84;;;-5.71;84.63
31082;BME280;17737;52.586;13.284;2022-12-18T08:02:48;103021.19;;;-5.67;84.90
31082;BME280;17737;52.586;13.284;2022-12-18T08:05:17;103020.25;;;-5.59;84.21
31082;BME280;17737;52.586;13.284;2022-12-18T08:07:44;103022.06;;;-5.70;84.60
31082;BME280;17737;52.586;13.284;2022-12-18T08:10:14;103023.84;;;-5.73;84.67
31082;BME280;17737;52.586;13.284;2022-12-18T08:12:41;103018.66;;;-5.79;84.70
31082;BME280;17737;52.586;13.284;2022-12-18T08:15:09;103018.59;;;-5.73;84.90
31082;BME280;17737;52.586;13.284;2022-12-18T08:17:37;103029.03;;;-5.64;84.71
31082;BME280;17737;52.586;13.284;2022-12-18T08:20:06;103039.59;;;-5.70;85.12
31082;BME280;17737;52.586;13.284;2022-12-18T08:22:38;103029.88;;;-5.58;84.45
31082;BME280;17737;52.586;13.284;2022-12-18T08:25:06;103033.41;;;-5.60;84.61
31082;BME280;17737;52.586;13.284;2022-12-18T08:27:36;103026.38;;;-5.57;84.73
31082;BME280;17737;52.586;13.284;2022-12-18T08:30:05;103027.19;;;-5.50;84.89
31082;BME280;17737;52.586;13.284;2022-12-18T08:32:34;103035.91;;;-5.45;84.88
31082;BME280;17737;52.586;13.284;2022-12-18T08:35:03;103047.19;;;-5.36;84.72
31082;BME280;17737;52.586;13.284;2022-12-18T08:37:31;103042.75;;;-5.29;84.64
31082;BME280;17737;52.586;13.284;2022-12-18T08:39:58;103042.69;;;-5.20;84.32
31082;BME280;17737;52.586;13.284;2022-12-18T08:42:26;103038.34;;;-5.24;84.04
31082;BME280;17737;52.586;13.284;2022-12-18T08:45:14;103043.56;;;-5.20;83.86
31082;BME280;17737;52.586;13.284;2022-12-18T08:47:43;103042.66;;;-5.16;83.92
31082;BME280;17737;52.586;13.284;2022-12-18T08:50:12;103055.03;;;-5.28;83.95
31082;BME280;17737;52.586;13.284;2022-12-18T08:52:41;103059.38;;;-5.21;83.61
31082;BME280;17737;52.586;13.284;2022-12-18T08:55:09;103064.66;;;-5.29;84.20
31082;BME280;17737;52.586;13.284;2022-12-18T08:57:36;103062.84;;;-5.22;84.47
31082;BME280;17737;52.586;13.284;2022-12-18T09:00:05;103055.75;;;-5.11;83.78
31082;BME280;17737;52.586;13.284;2022-12-18T09:02:35;103062.88;;;-5.24;84.47
31082;BME280;17737;52.586;13.284;2022-12-18T09:05:04;103062.84;;;-5.22;84.14
31082;BME280;17737;52.586;13.284;2022-12-18T09:07:32;103061.06;;;-5.14;84.14
31082;BME280;17737;52.586;13.284;2022-12-18T09:10:00;103068.94;;;-5.16;84.32
31082;BME280;17737;52.586;13.284;2022-12-18T09:12:28;103075.84;;;-5.07;83.98
31082;BME280;17737;52.586;13.284;2022-12-18T09:14:55;103076.72;;;-5.01;83.88
31082;BME280;17737;52.586;13.284;2022-12-18T09:17:23;103072.25;;;-4.97;83.58
31082;BME280;17737;52.586;13.284;2022-12-18T09:19:53;103065.28;;;-4.98;83.83
31082;BME280;17737;52.586;13.284;2022-12-18T09:22:20;103070.53;;;-4.98;83.60
31082;BME280;17737;52.586;13.284;2022-12-18T09:24:48;103069.63;;;-4.94;83.67
31082;BME280;17737;52.586;13.284;2022-12-18T09:27:16;103073.09;;;-4.94;83.34
31082;BME280;17737;52.586;13.284;2022-12-18T09:29:44;103081.84;;;-4.87;83.33
31082;BME280;17737;52.586;13.284;2022-12-18T09:32:12;103076.63;;;-4.93;83.68
31082;BME280;17737;52.586;13.284;2022-12-18T09:34:47;103079.16;;;-4.84;83.46
31082;BME280;17737;52.586;13.284;2022-12-18T09:37:17;103077.28;;;-4.70;82.78
31082;BME280;17737;52.586;13.284;2022-12-18T09:39:45;103082.53;;;-4.70;83.01
31082;BME280;17737;52.586;13.284;2022-12-18T09:42:19;103071.06;;;-4.64;82.56
31082;BME280;17737;52.586;13.284;2022-12-18T09:44:50;103068.38;;;-4.57;82.37
31082;BME280;17737;52.586;13.284;2022-12-18T09:47:23;103061.34;;;-4.55;82.37
31082;BME280;17737;52.586;13.284;2022-12-18T09:49:55;103057.06;;;-4.66;82.38
31082;BME280;17737;52.586;13.284;2022-12-18T09:52:28;103048.09;;;-4.47;82.25
31082;BME280;17737;52.586;13.284;2022-12-18T09:55:02;103035.75;;;-4.44;81.67
31082;BME280;17737;52.586;13.284;2022-12-18T09:57:35;103035.59;;;-4.30;81.53
31082;BME280;17737;52.586;13.284;2022-12-18T10:00:17;103033.91;;;-4.33;81.10
31082;BME280;17737;52.586;13.284;2022-12-18T10:02:47;103019.16;;;-4.49;81.36
31082;BME280;17737;52.586;13.284;2022-12-18T10:05:17;103027.88;;;-4.44;80.95
31082;BME280;17737;52.586;13.284;2022-12-18T10:07:54;103033.19;;;-4.47;81.35
31082;BME280;17737;52.586;13.284;2022-12-18T10:10:32;103020.22;;;-4.62;81.77
31082;BME280;17737;52.586;13.284;2022-12-18T10:13:08;103028.16;;;-4.65;82.03
31082;BME280;17737;52.586;13.284;2022-12-18T10:15:41;103020.22;;;-4.62;82.59
31082;BME280;17737;52.586;13.284;2022-12-18T10:18:22;103024.53;;;-4.58;82.39
31082;BME280;17737;52.586;13.284;2022-12-18T10:20:55;103027.16;;;-4.55;82.66
31082;BME280;17737;52.586;13.284;2022-12-18T10:23:28;103031.44;;;-4.48;82.66
31082;BME280;17737;52.586;13.284;2022-12-18T10:26:02;103024.38;;;-4.46;82.46
31082;BME280;17737;52.586;13.284;2022-12-18T10:28:32;103026.16;;;-4.46;83.09
31082;BME280;17737;52.586;13.284;2022-12-18T10:31:00;103022.56;;;-4.41;82.44
31082;BME280;17737;52.586;13.284;2022-12-18T10:33:30;103020.59;;;-4.24;82.59
31082;BME280;17737;52.586;13.284;2022-12-18T10:35:59;103006.63;;;-4.29;82.73
31082;BME280;17737;52.586;13.284;2022-12-18T10:38:31;102998.72;;;-4.29;82.70
31082;BME280;17737;52.586;13.284;2022-12-18T10:41:00;103007.44;;;-4.21;83.12
31082;BME280;17737;52.586;13.284;2022-12-18T10:43:30;102998.56;;;-4.15;82.73
31082;BME280;17737;52.586;13.284;2022-12-18T10:46:12;102990.66;;;-4.15;82.58
31082;BME280;17737;52.586;13.284;2022-12-18T10:48:53;102993.31;;;-4.17;82.96
31082;BME280;17737;52.586;13.284;2022-12-18T10:51:24;102982.84;;;-4.20;83.30
31082;BME280;17737;52.586;13.284;2022-12-18T10:54:01;102979.28;;;-4.16;83.42
31082;BME280;17737;52.586;13.284;2022-12-18T10:56:35;102980.03;;;-4.08;83.18
31082;BME280;17737;52.586;13.284;2022-12-18T10:59:06;102976.50;;;-4.07;83.06
31082;BME280;17737;52.586;13.284;2022-12-18T11:01:47;102973.88;;;-4.08;83.56
31082;BME280;17737;52.586;13.284;2022-12-18T11:04:20;102972.00;;;-3.97;83.35
31082;BME280;17737;52.586;13.284;2022-12-18T11:06:58;102972.09;;;-4.06;83.35
31082;BME280;17737;52.586;13.284;2022-12-18T11:09:28;102976.47;;;-4.04;83.95
31082;BME280;17737;52.586;13.284;2022-12-18T11:11:58;102972.81;;;-3.94;83.72
31082;BME280;17737;52.586;13.284;2022-12-18T11:14:28;102978.72;;;-3.78;83.45
31082;BME280;17737;52.586;13.284;2022-12-18T11:16:58;102990.22;;;-3.84;83.20
31082;BME280;17737;52.586;13.284;2022-12-18T11:19:52;102984.16;;;-3.89;83.40
31082;BME280;17737;52.586;13.284;2022-12-18T11:22:24;102975.25;;;-3.80;83.48
31082;BME280;17737;52.586;13.284;2022-12-18T11:24:59;102971.56;;;-3.70;82.95
31082;BME280;17737;52.586;13.284;2022-12-18T11:27:48;102970.63;;;-3.68;83.24
31082;BME280;17737;52.586;13.284;2022-12-18T11:30:22;102967.19;;;-3.70;82.68
31082;BME280;17737;52.586;13.284;2022-12-18T11:32:54;102965.34;;;-3.64;83.17
31082;BME280;17737;52.586;13.284;2022-12-18T11:35:32;102965.28;;;-3.61;83.14
31082;BME280;17737;52.586;13.284;2022-12-18T11:38:06;102971.28;;;-3.53;83.01
31082;BME280;17737;52.586;13.284;2022-12-18T11:40:42;102965.22;;;-3.58;82.75
31082;BME280;17737;52.586;13.284;2022-12-18T11:43:16;102969.66;;;-3.62;82.83
31082;BME280;17737;52.586;13.284;2022-12-18T11:45:51;102979.25;;;-3.56;82.42
31082;BME280;17737;52.586;13.284;2022-12-18T11:48:23;102995.06;;;-3.56;82.94
31082;BME280;17737;52.586;13.284;2022-12-18T11:50:54;102987.19;;;-3.58;83.04
31082;BME280;17737;52.586;13.284;2022-12-18T11:53:23;103001.91;;;-3.46;83.20
31082;BME280;17737;52.586;13.284;2022-12-18T11:56:21;103005.41;;;-3.44;82.80
31082;BME280;17737;52.586;13.284;2022-12-18T11:59:02;103002.28;;;-3.17;82.38
31082;BME280;17737;52.586;13.284;2022-12-18T12:01:42;103007.66;;;-3.23;82.06
31082;BME280;17737;52.586;13.284;2022-12-18T12:04:39;103005.22;;;-3.34;82.27
31082;BME280;17737;52.586;13.284;2022-12-18T12:07:20;103008.56;;;-3.24;82.32
31082;BME280;17737;52.586;13.284;2022-12-18T12:09:58;103011.28;;;-3.29;82.03
31082;BME280;17737;52.586;13.284;2022-12-18T12:12:33;103011.34;;;-3.33;82.18
31082;BME280;17737;52.586;13.284;2022-12-18T12:15:22;103012.38;;;-3.42;82.64
31082;BME280;17737;52.586;13.284;2022-12-18T12:17:57;103007.00;;;-3.36;82.95
31082;BME280;17737;52.586;13.284;2022-12-18T12:20:44;103015.84;;;-3.40;83.08
31082;BME280;17737;52.586;13.284;2022-12-18T12:23:20;103013.16;;;-3.35;82.63
31082;BME280;17737;52.586;13.284;2022-12-18T12:25:57;103018.44;;;-3.37;82.60
31082;BME280;17737;52.586;13.284;2022-12-18T12:28:47;103013.97;;;-3.30;82.47
31082;BME280;17737;52.586;13.284;2022-12-18T12:31:29;103021.06;;;-3.35;82.47
31082;BME280;17737;52.586;13.284;2022-12-18T12:34:07;103024.59;;;-3.36;82.47
31082;BME280;17737;52.586;13.284;2022-12-18T12:36:45;103033.41;;;-3.40;82.77
31082;BME280;17737;52.586;13.284;2022-12-18T12:39:22;103020.22;;;-3.37;82.61
31082;BME280;17737;52.586;13.284;2022-12-18T12:41:51;103025.44;;;-3.34;82.91
31082;BME280;17737;52.586;13.284;2022-12-18T12:44:42;103019.28;;;-3.35;82.70
31082;BME280;17737;52.586;13.284;2022-12-18T12:47:16;103012.19;;;-3.31;82.63
31082;BME280;17737;52.586;13.284;2022-12-18T12:49:47;103009.56;;;-3.31;82.73
31082;BME280;17737;52.586;13.284;2022-12-18T12:52:22;102989.50;;;-3.40;83.09
31082;BME280;17737;52.586;13.284;2022-12-18T12:54:54;102979.81;;;-3.38;83.37
31082;BME280;17737;52.586;13.284;2022-12-18T12:57:27;102979.94;;;-3.44;82.97
31082;BME280;17737;52.586;13.284;2022-12-18T13:00:03;102963.25;;;-3.44;82.96
31082;BME280;17737;52.586;13.284;2022-12-18T13:02:35;102973.78;;;-3.44;83.28